Terminal Aerodrome Forecast
Issued by NWS Duluth, MN

Home | Current Version | Previous Version | Text Only | Print | Product List | Glossary On
Versions: 1 2 3 4 5 6 7 8 9 10 11 12 13 14 15 16 17 18 19 20 21 22 23 24 25 26 27 28 29 30
087
FTUS43 KDLH 240535
TAFDLH
TAF
KDLH 240535Z 2406/2506 36008KT P6SM BKN150
     FM241200 03014KT P6SM BKN025 OVC100
     FM241800 02014G21KT P6SM SCT025 BKN050=

USA.gov is the U.S. government's official web portal to all federal, state and local government web resources and services.